الصفحة الرئيسية
METAR-TAF:

METAR-TAF

مطار :

سيماي, كازاخستان

دائرة عرض: 50-21-05N, خط طول: 080-14-04E, ارتفاع: 232 متر

مراقبة الطقس الحالي

تاريخ ووقت الإصدار 31 دقيقة قبل الساعة 23:30UTC
ريح 6 عقدة من الغرب
درجة الحرارة 15°درجة مئوية
الرطوبة 82%
ضغط 1010 hPa
الرؤية: 6000 متر
غيوم قليلة على ارتفاع 4000 قدم, مزنة ركامية.

METAR: UASS 132330Z 28003MPS 6000 FEW040CB 15/12 Q1010 NOSIG RMK QFE739/0985

زمن: 06:01 (00:01 UTC)

توقعات

تاريخ ووقت الإصدار 59 دقيقة قبل الساعة 23:02UTC
التوقعات صالحة من14 الساعة 00 UTC إلى 14 الساعة 09 UTC
ريح 8 عقدة من الشمال تتزايد حتى 17 عقدة
الرؤية 10 كم أو أكثر
غيوم متفرقة على ارتفاع 4000 قدم, مزنة ركامية.
غيوم مفككة على ارتفاع 10000 قدم
مؤقت
من 14 الساعة 00 UTC إلى 14 الساعة 03 UTC
الرؤية: 3100 متر
غشاء
مؤقت
من 14 الساعة 03 UTC إلى 14 الساعة 09 UTC
ريح 31 عقدةمن اتجاهات متغيرة
الرؤية: 3100 متر
غيوم مفككة على ارتفاع 3000 قدم, مزنة ركامية.
عاصفة رعدية, مطر خفيف, عاصفة مفاجئة,

TAF: UASS 132302Z 1400/1409 01004G09MPS 9999 SCT040CB BKN100 TEMPO 1400/1403 3100 BR TEMPO 1403/1409 VRB16MPS 3100 -TSRA SQ BKN030CB

أرصاد الطقس والتوقعات من أكثر من 4000 مطار (تقارير الطقس للمطار METAR والتنبؤ بالطقس بالمطارTAF).

المحطات المتاحة هي النقط الصفراء والحمراء على الخريطة.

حرك المؤشر فوق النقطة لمعرفة اسم المحطة.

ثم انقر لمعرفة أرصاد وتوقعات الطقس.

لتغيير الخارطة: اضغط على الأزرار الخضراء مع رمز الصليب الأسود للتكبير. على الزر الأخضر مع شرطة للتصغير، أو على الأسهم الخضراء للخرائط المجاورة.


METAR-TAF: